createdAt,value
2023-07-31T00:00:00.133Z,12
2023-07-31T00:05:00.121Z,12
2023-07-31T00:10:00.108Z,13.5
2023-07-31T00:15:00.189Z,12.9
2023-07-31T00:20:00.127Z,14.2
2023-07-31T00:25:00.121Z,13.8
2023-07-31T00:30:00.146Z,17.8
2023-07-31T00:35:00.122Z,16.7
2023-07-31T00:40:00.125Z,15.2
2023-07-31T00:45:00.139Z,18.1
2023-07-31T00:50:00.157Z,15.6
2023-07-31T00:55:00.160Z,13.6
2023-07-31T01:00:00.116Z,15.5
2023-07-31T01:05:00.123Z,17.4
2023-07-31T01:10:00.157Z,20
2023-07-31T01:15:00.142Z,21
2023-07-31T01:20:00.169Z,17.3
2023-07-31T01:25:00.143Z,19.7
2023-07-31T01:30:00.153Z,18.9
2023-07-31T01:35:00.138Z,14.8
2023-07-31T01:40:00.176Z,14.2
2023-07-31T01:45:00.141Z,16.5
2023-07-31T01:50:00.138Z,16.5
2023-07-31T01:55:00.142Z,20
2023-07-31T02:00:00.143Z,19.3
2023-07-31T02:05:00.128Z,19.3
2023-07-31T02:10:00.117Z,16.1
2023-07-31T02:15:00.123Z,21.7
2023-07-31T02:20:00.166Z,18.4
2023-07-31T02:25:00.107Z,19.1
2023-07-31T02:30:00.144Z,17.5
2023-07-31T02:35:00.144Z,20.6
2023-07-31T02:40:00.142Z,18.6
2023-07-31T02:45:00.142Z,23.4
2023-07-31T02:50:00.206Z,19.1
2023-07-31T02:55:00.140Z,16.7
2023-07-31T03:00:00.115Z,17.8
2023-07-31T03:05:00.142Z,18.1
2023-07-31T03:10:00.166Z,14.3
2023-07-31T03:15:00.149Z,15.3
2023-07-31T03:20:00.157Z,16.2
2023-07-31T03:25:00.132Z,18.1
2023-07-31T03:30:00.148Z,17.1
2023-07-31T03:35:00.144Z,16.9
2023-07-31T03:40:00.154Z,16.6
2023-07-31T03:45:00.119Z,16.6
2023-07-31T03:50:00.112Z,17.8
2023-07-31T03:55:00.122Z,17.8
2023-07-31T04:00:00.131Z,17.3
2023-07-31T04:05:00.169Z,17.9
2023-07-31T04:10:00.129Z,18.6
2023-07-31T04:15:00.102Z,18.2
2023-07-31T04:20:00.166Z,18
2023-07-31T04:25:00.141Z,16.1
2023-07-31T04:30:00.119Z,16.4
2023-07-31T04:35:00.133Z,12.9
2023-07-31T04:40:00.143Z,14.2
2023-07-31T04:45:00.143Z,14.7
2023-07-31T04:50:00.124Z,12.6
2023-07-31T04:55:00.293Z,15.1
2023-07-31T05:00:00.142Z,15.7
2023-07-31T05:05:00.157Z,13.3
2023-07-31T05:10:00.168Z,14.5
2023-07-31T05:15:00.111Z,19.2
2023-07-31T05:20:00.173Z,17.2
2023-07-31T05:25:00.150Z,14.2
2023-07-31T05:30:00.139Z,22.4
2023-07-31T05:35:00.138Z,27.1
2023-07-31T05:40:00.154Z,25.3
2023-07-31T05:45:00.130Z,26.5
2023-07-31T05:50:00.135Z,20.2
2023-07-31T05:55:00.135Z,25.1
2023-07-31T06:00:00.144Z,21.2
2023-07-31T06:05:00.204Z,23.6
2023-07-31T06:10:00.146Z,18.4
2023-07-31T06:15:00.150Z,24
2023-07-31T06:20:00.160Z,25.7
2023-07-31T06:25:00.117Z,21.6
2023-07-31T06:30:00.112Z,29.1
2023-07-31T06:35:00.101Z,30.6
2023-07-31T06:40:00.160Z,22.2
2023-07-31T06:45:00.148Z,30.1
2023-07-31T06:50:00.197Z,30.3
2023-07-31T06:55:00.139Z,25.9
2023-07-31T07:00:00.136Z,19.4
2023-07-31T07:05:00.275Z,26
2023-07-31T07:10:00.132Z,25.3
2023-07-31T07:15:00.103Z,28.9
2023-07-31T07:20:00.126Z,22.3
2023-07-31T07:25:00.130Z,27.6
2023-07-31T07:30:00.125Z,26.4
2023-07-31T07:35:00.126Z,30.5
2023-07-31T07:40:00.132Z,32.8
2023-07-31T07:45:00.122Z,32.1
2023-07-31T07:50:00.117Z,23.8
2023-07-31T07:55:00.111Z,33.7
2023-07-31T08:00:00.104Z,23.5
2023-07-31T08:05:00.141Z,36.6
2023-07-31T08:10:00.130Z,29.7
2023-07-31T08:15:00.135Z,30.1
2023-07-31T08:20:00.141Z,24.3
2023-07-31T08:25:00.113Z,28.6
2023-07-31T08:30:00.124Z,23.1
2023-07-31T08:35:00.138Z,33.7
2023-07-31T08:40:00.124Z,34.7
2023-07-31T08:45:00.131Z,29.5
2023-07-31T08:50:00.173Z,33.2
2023-07-31T08:55:00.138Z,29.5
2023-07-31T09:00:00.114Z,31.7
2023-07-31T09:05:00.098Z,30.8
2023-07-31T09:10:00.137Z,34.3
2023-07-31T09:15:00.131Z,26.9
2023-07-31T09:20:00.116Z,27.1
2023-07-31T09:25:00.140Z,23.3
2023-07-31T09:30:00.143Z,32.1
2023-07-31T09:35:00.146Z,32.1
2023-07-31T09:40:00.114Z,20.4
2023-07-31T09:45:00.210Z,23.5
2023-07-31T09:50:00.128Z,23.9
2023-07-31T09:55:00.122Z,40.9
2023-07-31T10:00:00.127Z,38
2023-07-31T10:05:00.118Z,37.4
2023-07-31T10:10:01.671Z,35.9
2023-07-31T10:15:00.145Z,35.7
2023-07-31T10:20:00.159Z,35.9
2023-07-31T10:25:00.123Z,43
2023-07-31T10:30:00.124Z,32.3
2023-07-31T10:35:00.161Z,30.8
2023-07-31T10:40:00.134Z,30.8
2023-07-31T10:45:00.138Z,35.2
2023-07-31T10:50:00.141Z,27.6
2023-07-31T10:55:00.282Z,37.4
2023-07-31T11:00:00.115Z,23.7
2023-07-31T11:05:00.156Z,35.2
2023-07-31T11:10:00.126Z,28.9
2023-07-31T11:15:00.106Z,28
2023-07-31T11:20:00.152Z,25.3
2023-07-31T11:25:00.146Z,21.7
2023-07-31T11:30:00.114Z,29.4
2023-07-31T11:35:00.162Z,26.6
2023-07-31T11:40:00.136Z,23.4
2023-07-31T11:45:00.112Z,29.7
2023-07-31T11:50:00.141Z,24.1
2023-07-31T11:55:00.158Z,29.5
2023-07-31T12:00:00.120Z,29.8
2023-07-31T12:05:00.146Z,18.1
2023-07-31T12:10:00.157Z,29.5
2023-07-31T12:15:00.166Z,35.7
2023-07-31T12:20:02.072Z,26.9
2023-07-31T12:25:00.149Z,43
2023-07-31T12:30:00.118Z,32.1
2023-07-31T12:35:00.166Z,35.9
2023-07-31T12:45:00.104Z,35.2
2023-07-31T12:50:00.194Z,18.9
2023-07-31T12:55:00.133Z,17.8
2023-07-31T13:00:00.133Z,32.1
2023-07-31T13:05:00.100Z,31.3
2023-07-31T13:10:00.128Z,18.7
2023-07-31T13:15:00.240Z,28.6
2023-07-31T13:20:01.399Z,28
2023-07-31T13:25:00.188Z,29.7
2023-07-31T13:30:00.154Z,29.1
2023-07-31T13:35:00.132Z,34.3
2023-07-31T13:40:00.123Z,23.4
2023-07-31T13:45:00.150Z,20.4
2023-07-31T13:50:00.146Z,26.5
2023-07-31T13:55:00.156Z,39.1
2023-07-31T14:00:00.127Z,28.6
2023-07-31T14:05:00.105Z,25.4
2023-07-31T14:10:00.274Z,27.4
2023-07-31T14:20:00.351Z,24.2
2023-07-31T14:25:00.134Z,29.5
2023-07-31T14:30:00.320Z,29.8
2023-07-31T14:35:00.130Z,40.6
2023-07-31T14:40:00.170Z,30.3
2023-07-31T14:45:00.140Z,29.2
2023-07-31T14:50:00.132Z,32.8
2023-07-31T14:55:00.145Z,29.7
2023-07-31T15:00:00.124Z,27.6
2023-07-31T15:05:00.119Z,26.6
2023-07-31T15:10:00.138Z,23.6
2023-07-31T15:15:00.104Z,24.1
2023-07-31T15:20:01.698Z,27
2023-07-31T15:25:00.150Z,28.2
2023-07-31T15:30:00.198Z,31.5
2023-07-31T15:35:00.165Z,26
2023-07-31T15:40:00.152Z,18.2
2023-07-31T15:45:00.141Z,31.7
2023-07-31T15:50:00.150Z,33.2
2023-07-31T15:55:00.140Z,40.6
2023-07-31T16:00:00.133Z,40.6
2023-07-31T16:05:00.156Z,30.5
2023-07-31T16:10:00.132Z,22.7
2023-07-31T16:15:00.141Z,28.8
2023-07-31T16:20:00.154Z,27.5
2023-07-31T16:25:00.110Z,20.6
2023-07-31T16:30:00.116Z,26.3
2023-07-31T16:35:00.155Z,36.1
2023-07-31T16:40:00.129Z,26.3
2023-07-31T16:45:00.116Z,29.7
2023-07-31T16:50:00.129Z,31.9
2023-07-31T16:55:00.143Z,31.9
2023-07-31T17:00:00.153Z,27.2
2023-07-31T17:05:00.131Z,23.9
2023-07-31T17:10:00.126Z,33
2023-07-31T17:15:00.112Z,22.3
2023-07-31T17:20:00.156Z,22.4
2023-07-31T17:25:00.136Z,22.8
2023-07-31T17:30:00.100Z,23.4
2023-07-31T17:35:00.104Z,19.7
2023-07-31T17:40:00.152Z,14.1
2023-07-31T17:45:00.110Z,14.8
2023-07-31T17:50:00.161Z,16.9
2023-07-31T17:55:00.121Z,14.8
2023-07-31T18:00:00.150Z,14.6
2023-07-31T18:05:00.163Z,13.6
2023-07-31T18:10:00.191Z,16.9
2023-07-31T18:15:00.147Z,14.9
2023-07-31T18:20:00.224Z,16
2023-07-31T18:25:00.195Z,13.3
2023-07-31T18:30:00.147Z,14.9
2023-07-31T18:35:00.217Z,18.7
2023-07-31T18:40:00.188Z,21
2023-07-31T18:45:00.177Z,17.2
2023-07-31T18:50:00.221Z,12.2
2023-07-31T18:55:00.247Z,16
2023-07-31T19:00:00.205Z,17.1
2023-07-31T19:05:00.190Z,23.4
2023-07-31T19:10:13.780Z,19.2
2023-07-31T19:15:00.202Z,18.9
2023-07-31T19:20:00.172Z,32.8
2023-07-31T19:25:00.143Z,33
2023-07-31T19:30:00.142Z,26.9
2023-07-31T19:35:00.137Z,30.1
2023-07-31T19:40:00.152Z,30.6
2023-07-31T19:45:00.117Z,28
2023-07-31T19:50:00.156Z,25.6
2023-07-31T19:55:00.268Z,27.8
2023-07-31T20:00:00.132Z,26.3
2023-07-31T20:05:00.171Z,29.7
2023-07-31T20:10:00.124Z,20.5
2023-07-31T20:15:00.107Z,23.4
2023-07-31T20:20:00.132Z,28.5
2023-07-31T20:25:00.127Z,20.8
2023-07-31T20:30:00.128Z,22.2
2023-07-31T20:35:00.128Z,21.3
2023-07-31T20:40:00.129Z,24.4
2023-07-31T20:45:00.167Z,23.3
2023-07-31T20:50:00.150Z,28.9
2023-07-31T20:55:00.134Z,27.1
2023-07-31T21:00:00.119Z,24.3
2023-07-31T21:05:00.144Z,26.4
2023-07-31T21:10:00.143Z,21.6
2023-07-31T21:15:00.133Z,20.8
2023-07-31T21:20:00.155Z,17.5
2023-07-31T21:25:00.139Z,25.1
2023-07-31T21:30:00.117Z,26.5
2023-07-31T21:35:00.165Z,30.6
2023-07-31T21:40:00.153Z,24.3
2023-07-31T21:45:00.145Z,24.5
2023-07-31T21:50:00.170Z,21.8
2023-07-31T21:55:00.259Z,24
2023-07-31T22:00:00.112Z,24.3
2023-07-31T22:05:00.112Z,24.6
2023-07-31T22:10:00.153Z,30
2023-07-31T22:15:00.137Z,28.2
2023-07-31T22:20:00.130Z,26.7
2023-07-31T22:25:00.141Z,20.6
2023-07-31T22:30:00.155Z,21.5
2023-07-31T22:35:00.132Z,18
2023-07-31T22:40:00.152Z,20.9
2023-07-31T22:45:00.144Z,18.9
2023-07-31T22:50:00.165Z,14.6
2023-07-31T22:55:00.150Z,14
2023-07-31T23:00:00.127Z,13.7
2023-07-31T23:05:00.144Z,16.5
2023-07-31T23:10:00.169Z,17.1
2023-07-31T23:15:00.148Z,18.3
2023-07-31T23:20:00.151Z,15.6
2023-07-31T23:25:00.115Z,15
2023-07-31T23:30:00.132Z,16.7
2023-07-31T23:35:00.147Z,16.3
2023-07-31T23:40:00.146Z,17
2023-07-31T23:45:09.643Z,18.2
2023-07-31T23:50:00.139Z,15.2
2023-07-31T23:55:00.112Z,17
